Los Altos Hills, California
Current Conditions -  °F | °C
As of 3:56 AM on Monday 20 Oct 2014 (Local Time) from KNUQ Reporting Station
Overcast Overcast  
Wind Chill: 63°   Ceiling: 1900
Heat Index: 63°   Visibility: 10mi
Dew Point: 58°   Wind: 5mph
Humidity: 84%   Direction: 240°WSW
Pressure: 29.92"   Gusts: NA
Location:  37.3464°N, 122.104°W
Report Text: KNUQ 201056Z AUTO 24004KT 10SM OVC019 17/14 A2992 RMK AO2 SLP134 T01720144 TSNO
Loading
Personal Weather Stations






























Interactive Weather Map
Tropical Storm Tracking
New forecast layout! Learn more

10-Day Weather Forecast

Advertisements
Track Severe Weather on mobile